Haskell, Texas
Current Conditions -  °F | °C
As of 1:52 AM on Friday 28 Nov 2014 (Local Time) from KABI Reporting Station
Clear Clear  
Wind Chill: 50°   Ceiling: Unl
Heat Index: 50°   Visibility: 10mi
Dew Point: 32°   Wind: 13mph
Humidity: 50%   Direction: 190°S
Pressure: 30.25"   Gusts: NA
Location:  33.16°N, 99.73°W
Report Text: KABI 280752Z 19011KT 10SM CLR 10/00 A3025 RMK AO2 SLP235 T01000000
Loading
Personal Weather Stations






























Interactive Weather Map New forecast layout! Learn more

10-Day Weather Forecast

Advertisements
Track Severe Weather on mobile